createdAt,value
2018-06-25T00:00:42.293Z,17.19
2018-06-25T00:03:14.496Z,17.15
2018-06-25T00:05:45.784Z,17.16
2018-06-25T00:08:17.098Z,17.21
2018-06-25T00:10:48.254Z,17.26
2018-06-25T00:13:19.531Z,17.24
2018-06-25T00:15:50.542Z,17.19
2018-06-25T00:18:21.499Z,17.07
2018-06-25T00:20:52.909Z,17.10
2018-06-25T00:23:24.163Z,17.14
2018-06-25T00:25:55.964Z,17.16
2018-06-25T00:28:27.192Z,17.09
2018-06-25T00:30:58.418Z,17.10
2018-06-25T00:33:29.521Z,17.04
2018-06-25T00:36:00.608Z,16.92
2018-06-25T00:38:31.831Z,16.99
2018-06-25T00:41:03.313Z,16.97
2018-06-25T00:43:34.545Z,17.02
2018-06-25T00:46:05.620Z,17.04
2018-06-25T00:48:36.827Z,17.09
2018-06-25T00:51:08.085Z,17.14
2018-06-25T00:53:39.376Z,17.18
2018-06-25T00:56:10.425Z,17.23
2018-06-25T00:58:52.926Z,17.25
2018-06-25T01:01:23.943Z,17.25
2018-06-25T01:03:54.854Z,17.25
2018-06-25T01:06:26.815Z,17.27
2018-06-25T01:08:59.101Z,17.28
2018-06-25T01:11:32.753Z,17.25
2018-06-25T01:14:03.951Z,17.12
2018-06-25T01:16:35.484Z,17.25
2018-06-25T01:19:06.815Z,17.26
2018-06-25T01:21:38.131Z,17.19
2018-06-25T01:24:09.409Z,17.15
2018-06-25T01:26:40.820Z,17.00
2018-06-25T01:29:12.018Z,17.02
2018-06-25T01:31:43.199Z,17.00
2018-06-25T01:34:14.236Z,16.96
2018-06-25T01:36:46.399Z,17.00
2018-06-25T01:39:17.550Z,16.97
2018-06-25T01:41:49.314Z,17.05
2018-06-25T01:44:20.520Z,17.04
2018-06-25T01:46:52.960Z,17.09
2018-06-25T01:49:24.317Z,17.00
2018-06-25T01:51:55.559Z,16.99
2018-06-25T01:54:27.293Z,16.99
2018-06-25T01:56:58.655Z,16.93
2018-06-25T01:59:29.642Z,16.95
2018-06-25T02:02:00.713Z,16.90
2018-06-25T02:04:32.011Z,16.80
2018-06-25T02:07:03.308Z,16.62
2018-06-25T02:09:34.775Z,16.53
2018-06-25T02:12:06.009Z,16.52
2018-06-25T02:14:37.232Z,16.54
2018-06-25T02:17:08.748Z,16.58
2018-06-25T02:19:39.908Z,16.55
2018-06-25T02:22:11.204Z,16.58
2018-06-25T02:24:42.698Z,16.49
2018-06-25T02:27:13.738Z,16.50
2018-06-25T02:29:44.835Z,16.49
2018-06-25T02:32:16.077Z,16.52
2018-06-25T02:34:47.440Z,16.49
2018-06-25T02:37:18.701Z,16.47
2018-06-25T02:39:49.927Z,16.33
2018-06-25T02:42:20.920Z,16.40
2018-06-25T02:44:51.898Z,16.30
2018-06-25T02:47:23.247Z,16.43
2018-06-25T02:49:54.767Z,16.50
2018-06-25T02:52:25.787Z,16.50
2018-06-25T02:54:56.787Z,16.57
2018-06-25T02:57:27.818Z,16.63
2018-06-25T02:59:59.292Z,16.69
2018-06-25T03:02:30.266Z,16.83
2018-06-25T03:05:01.160Z,16.97
2018-06-25T03:07:32.147Z,17.25
2018-06-25T03:10:04.431Z,18.28
2018-06-25T03:12:35.835Z,19.20
2018-06-25T03:15:07.165Z,20.41
2018-06-25T03:17:38.796Z,21.77
2018-06-25T03:20:10.075Z,22.45
2018-06-25T03:22:41.314Z,23.17
2018-06-25T03:25:12.581Z,23.41
2018-06-25T03:27:43.933Z,24.50
2018-06-25T03:30:14.980Z,25.43
2018-06-25T03:32:46.151Z,25.56
2018-06-25T03:35:17.274Z,24.66
2018-06-25T03:37:48.445Z,25.27
2018-06-25T03:40:19.455Z,25.06
2018-06-25T03:42:50.662Z,25.09
2018-06-25T03:45:21.964Z,25.42
2018-06-25T03:47:53.144Z,25.63
2018-06-25T03:50:24.453Z,25.26
2018-06-25T03:52:55.515Z,25.43
2018-06-25T03:55:26.770Z,25.83
2018-06-25T03:57:57.809Z,26.25
2018-06-25T04:00:28.802Z,26.88
2018-06-25T04:03:00.828Z,27.38
2018-06-25T04:05:32.314Z,27.18
2018-06-25T04:08:04.906Z,26.59
2018-06-25T04:10:36.136Z,26.96
2018-06-25T04:13:07.609Z,27.59
2018-06-25T04:15:40.478Z,27.74
2018-06-25T04:18:13.031Z,28.12
2018-06-25T04:20:44.912Z,28.87
2018-06-25T04:23:17.114Z,28.96
2018-06-25T04:25:49.283Z,27.51
2018-06-25T04:28:22.201Z,28.62
2018-06-25T04:30:53.897Z,28.98
2018-06-25T04:33:26.592Z,28.25
2018-06-25T04:35:58.880Z,29.21
2018-06-25T04:38:30.837Z,29.55
2018-06-25T04:41:03.250Z,30.17
2018-06-25T04:43:35.126Z,29.54
2018-06-25T04:46:07.059Z,29.23
2018-06-25T04:48:38.392Z,30.20
2018-06-25T04:51:10.365Z,31.44
2018-06-25T04:53:42.368Z,29.79
2018-06-25T04:56:13.553Z,30.67
2018-06-25T04:58:44.751Z,30.46
2018-06-25T05:01:16.061Z,29.57
2018-06-25T05:03:47.008Z,32.10
2018-06-25T05:06:18.309Z,33.43
2018-06-25T05:08:49.423Z,33.84
2018-06-25T05:11:20.735Z,34.01
2018-06-25T05:13:51.906Z,33.32
2018-06-25T05:16:23.120Z,33.54
2018-06-25T05:18:54.895Z,33.83
2018-06-25T05:21:25.950Z,34.73
2018-06-25T05:23:56.903Z,37.02
2018-06-25T05:26:28.003Z,38.82
2018-06-25T05:28:59.023Z,40.20
2018-06-25T05:31:30.329Z,35.50
2018-06-25T05:34:01.569Z,35.54
2018-06-25T05:36:32.897Z,37.16
2018-06-25T05:39:04.260Z,36.80
2018-06-25T05:41:35.563Z,36.70
2018-06-25T05:44:06.830Z,39.40
2018-06-25T05:46:37.777Z,41.89
2018-06-25T05:49:09.687Z,41.43
2018-06-25T05:51:41.788Z,42.90
2018-06-25T05:54:13.111Z,41.69
2018-06-25T05:56:44.378Z,42.05
2018-06-25T05:59:15.454Z,41.95
2018-06-25T06:01:46.816Z,42.82
2018-06-25T06:04:17.821Z,43.59
2018-06-25T06:06:49.117Z,41.54
2018-06-25T06:09:20.490Z,42.24
2018-06-25T06:11:51.269Z,40.80
2018-06-25T06:14:22.538Z,37.25
2018-06-25T06:16:54.078Z,34.43
2018-06-25T06:19:25.424Z,34.99
2018-06-25T06:21:56.668Z,34.22
2018-06-25T06:24:29.669Z,35.13
2018-06-25T06:27:01.008Z,33.17
2018-06-25T06:29:32.373Z,32.54
2018-06-25T06:32:03.633Z,33.57
2018-06-25T06:34:35.019Z,34.24
2018-06-25T06:37:06.213Z,34.14
2018-06-25T06:39:37.411Z,34.66
2018-06-25T06:42:08.829Z,35.42
2018-06-25T06:44:41.256Z,36.25
2018-06-25T06:47:12.571Z,31.88
2018-06-25T06:49:43.824Z,32.51
2018-06-25T06:52:15.030Z,31.61
2018-06-25T06:54:46.420Z,30.86
2018-06-25T06:57:17.640Z,33.67
2018-06-25T06:59:49.098Z,34.54
2018-06-25T07:02:21.034Z,33.16
2018-06-25T07:04:52.387Z,33.25
2018-06-25T07:07:23.223Z,31.57
2018-06-25T07:09:54.216Z,31.41
2018-06-25T07:12:24.945Z,31.45
2018-06-25T07:14:55.658Z,33.62
2018-06-25T07:17:26.570Z,31.94
2018-06-25T07:19:57.469Z,32.62
2018-06-25T07:22:28.193Z,33.35
2018-06-25T07:24:58.925Z,31.84
2018-06-25T07:27:29.613Z,33.85
2018-06-25T07:30:00.799Z,33.34
2018-06-25T07:32:31.574Z,34.45
2018-06-25T07:35:02.529Z,34.25
2018-06-25T07:37:33.321Z,32.75
2018-06-25T07:40:04.364Z,32.43
2018-06-25T07:42:35.079Z,32.55
2018-06-25T07:45:06.409Z,33.29
2018-06-25T07:47:38.172Z,33.46
2018-06-25T07:50:09.361Z,32.07
2018-06-25T07:52:40.648Z,32.13
2018-06-25T07:55:12.306Z,32.30
2018-06-25T07:57:43.809Z,32.35
2018-06-25T08:00:15.103Z,33.48
2018-06-25T08:02:46.062Z,32.79
2018-06-25T08:05:16.779Z,32.07
2018-06-25T08:07:47.501Z,32.84
2018-06-25T08:10:18.202Z,31.33
2018-06-25T08:12:48.880Z,30.22
2018-06-25T08:15:19.611Z,29.58
2018-06-25T08:17:50.342Z,29.38
2018-06-25T08:20:21.219Z,28.09
2018-06-25T08:22:52.061Z,27.53
2018-06-25T08:25:23.112Z,27.05
2018-06-25T08:27:54.599Z,26.16
2018-06-25T08:30:25.828Z,25.28
2018-06-25T08:32:56.844Z,25.03
2018-06-25T08:35:27.816Z,24.85
2018-06-25T08:37:58.790Z,24.83
2018-06-25T08:40:29.904Z,24.78
2018-06-25T08:43:01.406Z,24.60
2018-06-25T08:45:32.687Z,23.49
2018-06-25T08:48:03.849Z,23.30
2018-06-25T08:50:35.600Z,23.35
2018-06-25T08:53:06.760Z,23.56
2018-06-25T08:55:37.853Z,23.77
2018-06-25T08:58:08.975Z,23.96
2018-06-25T09:00:40.484Z,23.64
2018-06-25T09:03:12.024Z,23.90
2018-06-25T09:05:43.924Z,24.05
2018-06-25T09:08:15.258Z,23.68
2018-06-25T09:10:47.441Z,23.26
2018-06-25T09:13:19.872Z,23.54
2018-06-25T09:15:51.388Z,23.73
2018-06-25T09:18:22.637Z,23.67
2018-06-25T09:20:53.681Z,23.67
2018-06-25T09:23:24.884Z,23.96
2018-06-25T09:25:56.299Z,24.02
2018-06-25T09:28:28.135Z,24.05
2018-06-25T09:30:59.307Z,24.05
2018-06-25T09:33:30.198Z,24.13
2018-06-25T09:36:01.576Z,24.14
2018-06-25T09:38:32.768Z,24.34
2018-06-25T09:41:04.266Z,24.56
2018-06-25T09:43:35.231Z,24.26
2018-06-25T09:46:06.812Z,24.25
2018-06-25T09:48:37.887Z,24.22
2018-06-25T09:51:09.323Z,24.37
2018-06-25T09:53:40.962Z,24.31
2018-06-25T09:56:12.407Z,24.07
2018-06-25T09:58:43.715Z,24.44
2018-06-25T10:01:14.920Z,24.34
2018-06-25T10:03:45.960Z,24.55
2018-06-25T10:06:17.016Z,24.40
2018-06-25T10:08:48.396Z,24.13
2018-06-25T10:11:19.456Z,24.12
2018-06-25T10:13:50.974Z,24.11
2018-06-25T10:16:22.637Z,24.11
2018-06-25T10:18:53.797Z,24.07
2018-06-25T10:21:24.891Z,24.28
2018-06-25T10:23:56.280Z,24.74
2018-06-25T10:26:27.590Z,24.78
2018-06-25T10:28:58.526Z,24.36
2018-06-25T10:31:29.587Z,24.58
2018-06-25T10:34:00.449Z,24.60
2018-06-25T10:36:31.473Z,24.43
2018-06-25T10:39:02.642Z,23.90
2018-06-25T10:41:34.028Z,24.14
2018-06-25T10:44:05.586Z,24.21
2018-06-25T10:46:38.326Z,24.52
2018-06-25T10:49:12.816Z,24.51
2018-06-25T10:51:44.147Z,24.53
2018-06-25T10:54:17.715Z,24.64
2018-06-25T10:56:48.664Z,24.65
2018-06-25T10:59:21.446Z,24.73
2018-06-25T11:01:52.687Z,24.58
2018-06-25T11:04:23.350Z,24.43
2018-06-25T11:06:55.566Z,24.40
2018-06-25T11:09:26.758Z,24.29
2018-06-25T11:11:58.724Z,24.49
2018-06-25T11:14:29.434Z,24.49
2018-06-25T11:17:00.475Z,24.51
2018-06-25T11:19:31.616Z,24.25
2018-06-25T11:22:03.729Z,24.07
2018-06-25T11:24:36.584Z,24.35
2018-06-25T11:27:07.642Z,24.15
2018-06-25T11:29:38.744Z,24.32
2018-06-25T11:32:10.372Z,24.27
2018-06-25T11:34:43.249Z,24.38
2018-06-25T11:37:14.112Z,24.21
2018-06-25T11:39:45.507Z,24.35
2018-06-25T11:42:16.673Z,24.34
2018-06-25T11:44:48.483Z,24.04
2018-06-25T11:47:19.586Z,23.97
2018-06-25T11:49:50.719Z,24.04
2018-06-25T11:52:21.626Z,23.99
2018-06-25T11:54:52.498Z,23.98
2018-06-25T11:57:23.812Z,23.86
2018-06-25T11:59:54.873Z,23.85
2018-06-25T12:02:26.134Z,23.85
2018-06-25T12:04:57.080Z,23.88
2018-06-25T12:07:27.900Z,23.93
2018-06-25T12:10:00.603Z,24.19
2018-06-25T12:12:32.646Z,24.39
2018-06-25T12:15:03.546Z,24.61
2018-06-25T12:17:35.583Z,24.72
2018-06-25T12:20:06.850Z,24.32
2018-06-25T12:22:38.658Z,24.12
2018-06-25T12:25:11.231Z,23.73
2018-06-25T12:27:42.465Z,23.76
2018-06-25T12:30:13.362Z,23.89
2018-06-25T12:32:45.376Z,24.10
2018-06-25T12:35:16.747Z,24.18
2018-06-25T12:37:47.968Z,24.10
2018-06-25T12:40:19.391Z,23.83
2018-06-25T12:42:50.740Z,23.80
2018-06-25T12:45:21.794Z,23.79
2018-06-25T12:47:53.651Z,23.88
2018-06-25T12:50:24.838Z,23.94
2018-06-25T12:52:56.250Z,23.88
2018-06-25T12:55:27.385Z,24.08
2018-06-25T12:57:58.942Z,24.27
2018-06-25T13:00:29.989Z,24.24
2018-06-25T13:03:01.216Z,24.31
2018-06-25T13:05:32.662Z,24.34
2018-06-25T13:08:04.380Z,24.22
2018-06-25T13:10:35.663Z,24.10
2018-06-25T13:13:07.525Z,24.26
2018-06-25T13:15:38.905Z,23.82
2018-06-25T13:18:10.097Z,23.87
2018-06-25T13:20:41.426Z,23.77
2018-06-25T13:23:12.627Z,23.43
2018-06-25T13:25:43.639Z,23.60
2018-06-25T13:28:14.758Z,23.79
2018-06-25T13:30:46.691Z,23.80
2018-06-25T13:33:18.012Z,23.56
2018-06-25T13:35:49.064Z,23.70
2018-06-25T13:38:20.078Z,23.80
2018-06-25T13:40:51.057Z,23.56
2018-06-25T13:43:22.022Z,23.57
2018-06-25T13:45:52.866Z,23.63
2018-06-25T13:48:23.837Z,23.71
2018-06-25T13:50:54.953Z,23.89
2018-06-25T13:53:25.677Z,23.72
2018-06-25T13:55:56.736Z,23.60
2018-06-25T13:58:28.378Z,23.63
2018-06-25T14:00:59.660Z,23.74
2018-06-25T14:03:31.134Z,23.83
2018-06-25T14:06:02.007Z,23.48
2018-06-25T14:08:33.326Z,23.50
2018-06-25T14:11:04.306Z,23.45
2018-06-25T14:13:35.367Z,23.60
2018-06-25T14:16:06.694Z,23.42
2018-06-25T14:18:37.475Z,23.32
2018-06-25T14:21:09.845Z,23.23
2018-06-25T14:23:45.034Z,23.31
2018-06-25T14:26:16.485Z,23.26
2018-06-25T14:28:48.135Z,23.20
2018-06-25T14:31:25.858Z,23.24
2018-06-25T14:34:02.146Z,23.45
2018-06-25T14:36:33.048Z,23.61
2018-06-25T14:39:04.517Z,23.57
2018-06-25T14:41:35.539Z,23.51
2018-06-25T14:44:07.812Z,23.36
2018-06-25T14:46:38.968Z,23.37
2018-06-25T14:49:09.831Z,23.45
2018-06-25T14:51:41.812Z,23.51
2018-06-25T15:07:22.035Z,23.37
2018-06-25T15:09:52.934Z,23.16
2018-06-25T15:35:08.127Z,23.41
2018-06-25T15:37:39.310Z,23.25
2018-06-25T15:40:10.682Z,23.17
2018-06-25T15:42:41.935Z,23.12
2018-06-25T15:45:13.366Z,23.14
2018-06-25T15:47:45.521Z,23.06
2018-06-25T15:50:18.076Z,22.95
2018-06-25T15:52:49.636Z,22.64
2018-06-25T15:55:20.889Z,22.72
2018-06-25T15:57:52.134Z,22.81
2018-06-25T16:00:23.446Z,22.83
2018-06-25T16:02:54.713Z,22.88
2018-06-25T16:05:25.897Z,22.86
2018-06-25T16:07:57.063Z,22.79
2018-06-25T16:10:28.359Z,22.76
2018-06-25T16:13:00.808Z,22.79
2018-06-25T16:15:34.972Z,22.64
2018-06-25T16:18:10.514Z,22.54
2018-06-25T16:20:45.409Z,22.65
2018-06-25T16:23:19.482Z,22.46
2018-06-25T16:25:53.468Z,22.44
2018-06-25T16:28:26.336Z,22.50
2018-06-25T16:31:01.253Z,22.51
2018-06-25T16:33:32.974Z,22.41
2018-06-25T16:36:04.187Z,22.24
2018-06-25T16:38:35.322Z,22.25
2018-06-25T16:41:06.649Z,22.23
2018-06-25T16:43:37.742Z,22.14
2018-06-25T16:46:08.945Z,22.18
2018-06-25T16:48:40.167Z,22.14
2018-06-25T16:51:11.507Z,22.07
2018-06-25T16:53:42.941Z,21.95
2018-06-25T16:56:14.652Z,21.96
2018-06-25T16:58:45.880Z,21.86
2018-06-25T17:01:17.321Z,21.75
2018-06-25T17:03:48.867Z,21.77
2018-06-25T17:06:20.076Z,21.79
2018-06-25T17:08:52.009Z,21.67
2018-06-25T17:11:23.421Z,21.56
2018-06-25T17:13:54.358Z,21.64
2018-06-25T17:16:25.640Z,21.52
2018-06-25T17:18:57.015Z,21.51
2018-06-25T17:21:28.497Z,21.46
2018-06-25T17:24:01.352Z,21.37
2018-06-25T17:26:32.493Z,21.34
2018-06-25T17:29:03.734Z,21.33
2018-06-25T17:31:36.256Z,21.38
2018-06-25T17:34:08.577Z,21.29
2018-06-25T17:36:41.525Z,21.25
2018-06-25T17:39:13.375Z,21.15
2018-06-25T17:41:44.757Z,21.19
2018-06-25T17:44:15.647Z,21.13
2018-06-25T17:46:46.596Z,21.06
2018-06-25T17:49:17.985Z,21.04
2018-06-25T17:51:50.313Z,20.99
2018-06-25T17:54:21.485Z,20.99
2018-06-25T17:56:52.734Z,20.98
2018-06-25T17:59:24.000Z,20.92
2018-06-25T18:01:55.070Z,20.91
2018-06-25T18:04:26.077Z,20.85
2018-06-25T18:06:57.004Z,20.84
2018-06-25T18:09:29.061Z,20.86
2018-06-25T18:12:00.412Z,20.84
2018-06-25T18:14:31.856Z,20.76
2018-06-25T18:17:03.068Z,20.76
2018-06-25T18:19:34.342Z,20.79
2018-06-25T18:22:05.625Z,20.79
2018-06-25T18:24:36.817Z,20.74
2018-06-25T18:27:08.798Z,20.75
2018-06-25T18:29:40.028Z,20.74
2018-06-25T18:32:11.130Z,20.69
2018-06-25T18:34:42.438Z,20.68
2018-06-25T18:37:14.218Z,20.74
2018-06-25T18:39:45.420Z,20.64
2018-06-25T18:42:16.710Z,20.65
2018-06-25T18:44:47.808Z,20.60
2018-06-25T18:47:19.032Z,20.60
2018-06-25T18:49:50.141Z,20.56
2018-06-25T18:52:21.359Z,20.52
2018-06-25T18:54:53.523Z,20.55
2018-06-25T18:57:24.656Z,20.52
2018-06-25T18:59:55.675Z,20.43
2018-06-25T19:02:26.711Z,20.50
2018-06-25T19:04:58.819Z,20.49
2018-06-25T19:07:29.997Z,20.52
2018-06-25T19:10:01.316Z,20.56
2018-06-25T19:12:32.979Z,20.56
2018-06-25T19:15:03.947Z,20.60
2018-06-25T19:17:35.728Z,20.63
2018-06-25T19:20:07.048Z,20.66
2018-06-25T19:22:38.488Z,20.70
2018-06-25T19:25:09.594Z,20.67
2018-06-25T19:27:40.695Z,20.70
2018-06-25T19:30:12.601Z,20.68
2018-06-25T19:32:44.010Z,20.67
2018-06-25T19:35:15.384Z,20.69
2018-06-25T19:37:46.613Z,20.57
2018-06-25T19:40:19.003Z,20.52
2018-06-25T19:42:50.409Z,20.58
2018-06-25T19:45:21.518Z,20.53
2018-06-25T19:47:52.774Z,20.46
2018-06-25T19:50:24.183Z,20.55
2018-06-25T19:52:55.449Z,20.53
2018-06-25T19:55:26.578Z,20.61
2018-06-25T19:57:57.822Z,20.55
2018-06-25T20:00:29.088Z,20.54
2018-06-25T20:03:00.320Z,20.50
2018-06-25T20:05:31.062Z,20.57
2018-06-25T20:08:02.536Z,20.57
2018-06-25T20:10:33.615Z,20.53
2018-06-25T20:13:04.725Z,20.48
2018-06-25T20:15:35.828Z,20.49
2018-06-25T20:18:06.858Z,20.53
2018-06-25T20:20:37.726Z,20.55
2018-06-25T20:23:08.850Z,20.49
2018-06-25T20:25:40.318Z,20.40
2018-06-25T20:28:11.331Z,20.40
2018-06-25T20:30:42.602Z,20.23
2018-06-25T20:33:13.708Z,20.20
2018-06-25T20:35:44.752Z,20.18
2018-06-25T20:38:15.804Z,20.02
2018-06-25T20:40:47.977Z,19.99
2018-06-25T20:43:19.273Z,19.99
2018-06-25T20:45:51.056Z,19.90
2018-06-25T20:48:22.374Z,19.91
2018-06-25T20:50:58.942Z,19.85
2018-06-25T20:53:30.217Z,19.73
2018-06-25T20:56:01.642Z,19.66
2018-06-25T20:58:32.829Z,19.55
2018-06-25T21:01:04.017Z,19.49
2018-06-25T21:03:35.205Z,19.43
2018-06-25T21:06:08.381Z,19.32
2018-06-25T21:08:39.473Z,19.39
2018-06-25T21:11:11.155Z,19.32
2018-06-25T21:13:42.324Z,19.24
2018-06-25T21:16:13.926Z,19.23
2018-06-25T21:18:45.089Z,19.21
2018-06-25T21:21:17.236Z,19.16
2018-06-25T21:23:48.932Z,19.16
2018-06-25T21:26:20.020Z,19.12
2018-06-25T21:28:51.554Z,19.04
2018-06-25T21:31:38.844Z,19.11
2018-06-25T21:34:10.138Z,19.08
2018-06-25T21:36:44.187Z,19.06
2018-06-25T21:39:18.906Z,19.05
2018-06-25T21:41:53.478Z,19.07
2018-06-25T21:44:24.317Z,19.04
2018-06-25T21:46:55.715Z,19.13
2018-06-25T21:49:30.186Z,19.11
2018-06-25T21:52:01.157Z,19.18
2018-06-25T21:54:33.508Z,19.20
2018-06-25T21:57:05.734Z,19.19
2018-06-25T21:59:37.236Z,19.28
2018-06-25T22:02:08.258Z,19.26
2018-06-25T22:04:39.482Z,19.30
2018-06-25T22:07:10.728Z,19.38
2018-06-25T22:09:42.313Z,19.40
2018-06-25T22:12:14.627Z,19.48
2018-06-25T22:14:46.031Z,19.47
2018-06-25T22:17:17.081Z,19.56
2018-06-25T22:19:48.094Z,19.57
2018-06-25T22:22:20.419Z,19.55
2018-06-25T22:24:51.551Z,19.51
2018-06-25T22:27:22.788Z,19.54
2018-06-25T22:29:54.104Z,19.55
2018-06-25T22:32:24.995Z,19.62
2018-06-25T22:34:56.203Z,19.68
2018-06-25T22:37:28.125Z,19.63
2018-06-25T22:39:59.349Z,19.65
2018-06-25T22:42:32.341Z,19.69
2018-06-25T22:45:03.435Z,19.59
2018-06-25T22:47:35.529Z,19.59
2018-06-25T22:50:07.090Z,19.61
2018-06-25T22:52:38.493Z,19.68
2018-06-25T22:55:09.748Z,19.76
2018-06-25T22:57:40.882Z,19.72
2018-06-25T23:00:12.288Z,19.68
2018-06-25T23:02:43.533Z,19.72
2018-06-25T23:05:14.863Z,19.77
2018-06-25T23:07:45.948Z,19.73
2018-06-25T23:10:17.011Z,19.64
2018-06-25T23:12:48.927Z,19.67
2018-06-25T23:15:19.928Z,19.72
2018-06-25T23:17:50.884Z,19.68
2018-06-25T23:20:22.632Z,19.71
2018-06-25T23:22:57.474Z,19.60
2018-06-25T23:25:28.847Z,19.63
2018-06-25T23:27:59.868Z,19.65
2018-06-25T23:30:30.833Z,19.62
2018-06-25T23:33:01.922Z,19.59
2018-06-25T23:35:33.288Z,19.58
2018-06-25T23:38:04.633Z,19.49
2018-06-25T23:40:36.018Z,19.56
2018-06-25T23:43:07.136Z,19.48
2018-06-25T23:45:39.813Z,19.51
2018-06-25T23:48:10.838Z,19.45
2018-06-25T23:50:42.275Z,19.32
2018-06-25T23:53:13.472Z,19.29
2018-06-25T23:55:44.563Z,19.38
2018-06-25T23:58:16.757Z,19.35
